sensor_id;sensor_type;location;lat;lon;timestamp;pressure;altitude;pressure_sealevel;temperature;humidity
51849;BME280;38952;51.090;-1.832;2023-07-13T00:02:18;100312.75;;;13.19;97.85
51849;BME280;38952;51.090;-1.832;2023-07-13T00:04:44;100310.84;;;13.15;97.13
51849;BME280;38952;51.090;-1.832;2023-07-13T00:07:09;100307.31;;;13.09;97.59
51849;BME280;38952;51.090;-1.832;2023-07-13T00:09:35;100306.53;;;13.03;97.79
51849;BME280;38952;51.090;-1.832;2023-07-13T00:12:01;100317.00;;;13.01;97.67
51849;BME280;38952;51.090;-1.832;2023-07-13T00:14:27;100312.59;;;13.00;97.42
51849;BME280;38952;51.090;-1.832;2023-07-13T00:16:53;100305.22;;;12.96;97.56
51849;BME280;38952;51.090;-1.832;2023-07-13T00:19:19;100318.13;;;12.95;97.86
51849;BME280;38952;51.090;-1.832;2023-07-13T00:21:46;100286.91;;;12.86;97.82
51849;BME280;38952;51.090;-1.832;2023-07-13T00:24:15;100318.88;;;13.06;97.61
51849;BME280;38952;51.090;-1.832;2023-07-13T00:26:41;100321.25;;;13.18;97.40
51849;BME280;38952;51.090;-1.832;2023-07-13T00:29:10;100316.75;;;13.32;96.59
51849;BME280;38952;51.090;-1.832;2023-07-13T00:31:35;100318.88;;;13.46;95.97
51849;BME280;38952;51.090;-1.832;2023-07-13T00:34:02;100320.44;;;13.57;95.18
51849;BME280;38952;51.090;-1.832;2023-07-13T00:36:27;100313.88;;;13.53;94.68
51849;BME280;38952;51.090;-1.832;2023-07-13T00:38:53;100312.88;;;13.43;94.56
51849;BME280;38952;51.090;-1.832;2023-07-13T00:41:18;100314.31;;;13.31;94.71
51849;BME280;38952;51.090;-1.832;2023-07-13T00:43:44;100312.75;;;13.19;94.83
51849;BME280;38952;51.090;-1.832;2023-07-13T00:46:31;100320.78;;;13.10;94.94
51849;BME280;38952;51.090;-1.832;2023-07-13T00:49:05;100307.41;;;12.99;95.30
51849;BME280;38952;51.090;-1.832;2023-07-13T00:51:45;100302.22;;;12.92;95.79
51849;BME280;38952;51.090;-1.832;2023-07-13T00:54:18;100308.03;;;12.85;95.68
51849;BME280;38952;51.090;-1.832;2023-07-13T00:56:48;100298.75;;;12.76;96.17
51849;BME280;38952;51.090;-1.832;2023-07-13T00:59:15;100307.28;;;12.74;96.18
51849;BME280;38952;51.090;-1.832;2023-07-13T01:01:42;100300.22;;;12.63;96.68
51849;BME280;38952;51.090;-1.832;2023-07-13T01:04:07;100301.03;;;12.58;96.70
51849;BME280;38952;51.090;-1.832;2023-07-13T01:06:35;100312.06;;;12.53;97.08
51849;BME280;38952;51.090;-1.832;2023-07-13T01:09:01;100304.69;;;12.49;97.04
51849;BME280;38952;51.090;-1.832;2023-07-13T01:11:27;100303.59;;;12.45;97.35
51849;BME280;38952;51.090;-1.832;2023-07-13T01:13:52;100303.59;;;12.39;97.57
51849;BME280;38952;51.090;-1.832;2023-07-13T01:16:27;100306.34;;;12.39;97.58
51849;BME280;38952;51.090;-1.832;2023-07-13T01:18:53;100305.28;;;12.35;98.23
51849;BME280;38952;51.090;-1.832;2023-07-13T01:21:19;100301.47;;;12.31;98.46
51849;BME280;38952;51.090;-1.832;2023-07-13T01:23:45;100307.22;;;12.30;98.57
51849;BME280;38952;51.090;-1.832;2023-07-13T01:26:10;100303.94;;;12.28;98.72
51849;BME280;38952;51.090;-1.832;2023-07-13T01:28:36;100306.97;;;12.26;98.98
51849;BME280;38952;51.090;-1.832;2023-07-13T01:31:03;100306.16;;;12.26;99.15
51849;BME280;38952;51.090;-1.832;2023-07-13T01:33:29;100303.69;;;12.19;99.17
51849;BME280;38952;51.090;-1.832;2023-07-13T01:35:54;100299.84;;;12.20;99.33
51849;BME280;38952;51.090;-1.832;2023-07-13T01:38:23;100317.41;;;12.24;99.49
51849;BME280;38952;51.090;-1.832;2023-07-13T01:40:50;100300.38;;;12.27;99.79
51849;BME280;38952;51.090;-1.832;2023-07-13T01:43:16;100303.13;;;12.27;99.46
51849;BME280;38952;51.090;-1.832;2023-07-13T01:45:42;100300.66;;;12.26;99.60
51849;BME280;38952;51.090;-1.832;2023-07-13T01:48:09;100297.63;;;12.27;100.00
51849;BME280;38952;51.090;-1.832;2023-07-13T01:50:35;100301.47;;;12.31;99.39
51849;BME280;38952;51.090;-1.832;2023-07-13T01:53:01;100298.19;;;12.24;99.45
51849;BME280;38952;51.090;-1.832;2023-07-13T01:55:27;100296.00;;;12.26;99.97
51849;BME280;38952;51.090;-1.832;2023-07-13T01:57:53;100306.97;;;12.26;100.00
51849;BME280;38952;51.090;-1.832;2023-07-13T02:00:18;100307.56;;;12.18;100.00
51849;BME280;38952;51.090;-1.832;2023-07-13T02:02:44;100307.00;;;12.21;99.84
51849;BME280;38952;51.090;-1.832;2023-07-13T02:05:10;100314.13;;;12.17;99.81
51849;BME280;38952;51.090;-1.832;2023-07-13T02:07:36;100311.66;;;12.15;100.00
51849;BME280;38952;51.090;-1.832;2023-07-13T02:10:02;100285.09;;;12.05;100.00
51849;BME280;38952;51.090;-1.832;2023-07-13T02:12:27;100309.22;;;12.14;100.00
51849;BME280;38952;51.090;-1.832;2023-07-13T02:14:53;100287.28;;;12.14;100.00
51849;BME280;38952;51.090;-1.832;2023-07-13T02:17:18;100302.88;;;12.18;100.00
51849;BME280;38952;51.090;-1.832;2023-07-13T02:19:44;100298.25;;;12.14;100.00
51849;BME280;38952;51.090;-1.832;2023-07-13T02:22:09;100294.38;;;12.15;100.00
51849;BME280;38952;51.090;-1.832;2023-07-13T02:24:34;100287.00;;;12.10;100.00
51849;BME280;38952;51.090;-1.832;2023-07-13T02:27:00;100287.28;;;12.09;100.00
51849;BME280;38952;51.090;-1.832;2023-07-13T02:29:25;100296.06;;;12.05;100.00
51849;BME280;38952;51.090;-1.832;2023-07-13T02:31:51;100294.97;;;12.01;100.00
51849;BME280;38952;51.090;-1.832;2023-07-13T02:34:16;100287.88;;;12.00;100.00
51849;BME280;38952;51.090;-1.832;2023-07-13T02:36:42;100289.81;;;11.95;100.00
51849;BME280;38952;51.090;-1.832;2023-07-13T02:39:08;100288.69;;;11.91;100.00
51849;BME280;38952;51.090;-1.832;2023-07-13T02:41:34;100294.16;;;11.91;100.00
51849;BME280;38952;51.090;-1.832;2023-07-13T02:43:59;100295.81;;;11.92;100.00
51849;BME280;38952;51.090;-1.832;2023-07-13T02:46:36;100293.63;;;11.88;100.00
51849;BME280;38952;51.090;-1.832;2023-07-13T02:49:02;100287.63;;;11.81;100.00
51849;BME280;38952;51.090;-1.832;2023-07-13T02:55:18;100267.69;;;11.55;100.00
51849;BME280;38952;51.090;-1.832;2023-07-13T02:57:46;100282.41;;;11.69;100.00
51849;BME280;38952;51.090;-1.832;2023-07-13T03:00:17;100297.78;;;11.76;100.00
51849;BME280;38952;51.090;-1.832;2023-07-13T03:02:42;100299.13;;;11.78;100.00
51849;BME280;38952;51.090;-1.832;2023-07-13T03:05:08;100304.84;;;11.87;100.00
51849;BME280;38952;51.090;-1.832;2023-07-13T03:07:38;100295.53;;;11.88;100.00
51849;BME280;38952;51.090;-1.832;2023-07-13T03:10:04;100293.34;;;11.90;100.00
51849;BME280;38952;51.090;-1.832;2023-07-13T03:12:31;100304.59;;;11.99;100.00
51849;BME280;38952;51.090;-1.832;2023-07-13T03:14:57;100293.91;;;11.97;100.00
51849;BME280;38952;51.090;-1.832;2023-07-13T03:17:22;100298.28;;;11.98;100.00
51849;BME280;38952;51.090;-1.832;2023-07-13T03:19:48;100292.75;;;12.14;100.00
51849;BME280;38952;51.090;-1.832;2023-07-13T03:22:19;100289.13;;;12.29;100.00
51849;BME280;38952;51.090;-1.832;2023-07-13T03:24:45;100289.91;;;12.39;100.00
51849;BME280;38952;51.090;-1.832;2023-07-13T03:27:17;100287.72;;;12.42;100.00
51849;BME280;38952;51.090;-1.832;2023-07-13T03:29:43;100288.78;;;12.46;100.00
51849;BME280;38952;51.090;-1.832;2023-07-13T03:32:11;100292.06;;;12.48;100.00
51849;BME280;38952;51.090;-1.832;2023-07-13T03:34:36;100295.91;;;12.47;100.00
51849;BME280;38952;51.090;-1.832;2023-07-13T03:37:02;100287.44;;;12.43;100.00
51849;BME280;38952;51.090;-1.832;2023-07-13T03:39:27;100293.75;;;12.38;100.00
51849;BME280;38952;51.090;-1.832;2023-07-13T03:41:53;100278.44;;;12.22;100.00
51849;BME280;38952;51.090;-1.832;2023-07-13T03:44:19;100291.63;;;12.20;100.00
51849;BME280;38952;51.090;-1.832;2023-07-13T03:46:45;100294.13;;;12.16;100.00
51849;BME280;38952;51.090;-1.832;2023-07-13T03:49:10;100284.28;;;12.05;100.00
51849;BME280;38952;51.090;-1.832;2023-07-13T03:51:36;100298.84;;;12.00;100.00
51849;BME280;38952;51.090;-1.832;2023-07-13T03:54:04;100301.06;;;11.93;100.00
51849;BME280;38952;51.090;-1.832;2023-07-13T03:56:30;100307.34;;;11.88;100.00
51849;BME280;38952;51.090;-1.832;2023-07-13T03:58:57;100304.88;;;11.82;100.00
51849;BME280;38952;51.090;-1.832;2023-07-13T04:01:24;100297.22;;;11.74;100.00
51849;BME280;38952;51.090;-1.832;2023-07-13T04:03:52;100295.84;;;11.66;100.00
51849;BME280;38952;51.090;-1.832;2023-07-13T04:06:21;100301.63;;;11.64;100.00
51849;BME280;38952;51.090;-1.832;2023-07-13T04:08:52;100295.59;;;11.62;100.00
51849;BME280;38952;51.090;-1.832;2023-07-13T04:11:19;100301.91;;;11.63;100.00
51849;BME280;38952;51.090;-1.832;2023-07-13T04:13:46;100295.06;;;11.55;100.00
51849;BME280;38952;51.090;-1.832;2023-07-13T04:16:12;100305.44;;;11.63;100.00
51849;BME280;38952;51.090;-1.832;2023-07-13T04:19:15;100303.28;;;11.65;100.00
51849;BME280;38952;51.090;-1.832;2023-07-13T04:21:41;100308.75;;;11.65;100.00
51849;BME280;38952;51.090;-1.832;2023-07-13T04:24:06;100307.06;;;11.69;100.00
51849;BME280;38952;51.090;-1.832;2023-07-13T04:26:33;100314.47;;;11.79;100.00
51849;BME280;38952;51.090;-1.832;2023-07-13T04:29:01;100317.75;;;11.81;100.00
51849;BME280;38952;51.090;-1.832;2023-07-13T04:31:29;100317.47;;;11.83;100.00
51849;BME280;38952;51.090;-1.832;2023-07-13T04:33:54;100327.31;;;11.89;100.00
51849;BME280;38952;51.090;-1.832;2023-07-13T04:36:20;100324.59;;;11.99;100.00
51849;BME280;38952;51.090;-1.832;2023-07-13T04:38:45;100327.59;;;12.08;100.00
51849;BME280;38952;51.090;-1.832;2023-07-13T04:41:13;100325.91;;;12.17;100.00
51849;BME280;38952;51.090;-1.832;2023-07-13T04:43:39;100326.72;;;12.28;100.00
51849;BME280;38952;51.090;-1.832;2023-07-13T04:46:11;100325.81;;;12.38;100.00
51849;BME280;38952;51.090;-1.832;2023-07-13T04:48:37;100338.13;;;12.51;100.00
51849;BME280;38952;51.090;-1.832;2023-07-13T04:51:03;100326.00;;;12.57;100.00
51849;BME280;38952;51.090;-1.832;2023-07-13T04:53:30;100333.09;;;12.73;100.00
51849;BME280;38952;51.090;-1.832;2023-07-13T04:55:56;100330.00;;;12.80;100.00
51849;BME280;38952;51.090;-1.832;2023-07-13T04:58:22;100324.19;;;12.92;100.00
51849;BME280;38952;51.090;-1.832;2023-07-13T05:00:48;100339.47;;;13.08;100.00
51849;BME280;38952;51.090;-1.832;2023-07-13T05:03:14;100339.63;;;13.22;99.81
51849;BME280;38952;51.090;-1.832;2023-07-13T05:05:39;100339.84;;;13.31;99.47
51849;BME280;38952;51.090;-1.832;2023-07-13T05:08:05;100345.28;;;13.41;99.13
51849;BME280;38952;51.090;-1.832;2023-07-13T05:10:33;100346.31;;;13.51;98.58
51849;BME280;38952;51.090;-1.832;2023-07-13T05:13:01;100347.84;;;13.62;98.05
51849;BME280;38952;51.090;-1.832;2023-07-13T05:15:26;100346.63;;;13.78;97.68
51849;BME280;38952;51.090;-1.832;2023-07-13T05:17:52;100340.53;;;13.82;97.34
51849;BME280;38952;51.090;-1.832;2023-07-13T05:20:18;100345.97;;;13.87;96.93
51849;BME280;38952;51.090;-1.832;2023-07-13T05:22:44;100343.13;;;13.97;96.39
51849;BME280;38952;51.090;-1.832;2023-07-13T05:25:09;100337.63;;;13.97;96.03
51849;BME280;38952;51.090;-1.832;2023-07-13T05:27:36;100340.84;;;14.04;95.82
51849;BME280;38952;51.090;-1.832;2023-07-13T05:30:02;100333.66;;;14.08;95.57
51849;BME280;38952;51.090;-1.832;2023-07-13T05:32:28;100344.53;;;14.19;95.36
51849;BME280;38952;51.090;-1.832;2023-07-13T05:34:53;100337.06;;;14.24;95.13
51849;BME280;38952;51.090;-1.832;2023-07-13T05:37:19;100335.59;;;14.32;94.61
51849;BME280;38952;51.090;-1.832;2023-07-13T05:39:44;100346.16;;;14.44;94.33
51849;BME280;38952;51.090;-1.832;2023-07-13T05:42:10;100348.50;;;14.56;93.80
51849;BME280;38952;51.090;-1.832;2023-07-13T05:44:35;100352.75;;;14.72;93.55
51849;BME280;38952;51.090;-1.832;2023-07-13T05:47:01;100341.66;;;14.77;92.85
51849;BME280;38952;51.090;-1.832;2023-07-13T05:49:26;100363.63;;;14.82;92.96
51849;BME280;38952;51.090;-1.832;2023-07-13T05:51:52;100368.56;;;14.80;92.45
51849;BME280;38952;51.090;-1.832;2023-07-13T05:54:18;100367.84;;;14.75;92.50
51849;BME280;38952;51.090;-1.832;2023-07-13T05:56:43;100372.16;;;14.57;92.28
51849;BME280;38952;51.090;-1.832;2023-07-13T05:59:09;100365.69;;;14.47;91.74
51849;BME280;38952;51.090;-1.832;2023-07-13T06:01:34;100359.63;;;14.45;91.71
51849;BME280;38952;51.090;-1.832;2023-07-13T06:04:00;100370.25;;;14.57;91.42
51849;BME280;38952;51.090;-1.832;2023-07-13T06:06:25;100367.09;;;14.69;90.71
51849;BME280;38952;51.090;-1.832;2023-07-13T06:08:51;100372.97;;;14.81;90.15
51849;BME280;38952;51.090;-1.832;2023-07-13T06:11:19;100386.53;;;14.97;90.20
51849;BME280;38952;51.090;-1.832;2023-07-13T06:13:45;100379.34;;;15.01;89.80
51849;BME280;38952;51.090;-1.832;2023-07-13T06:16:12;100369.94;;;15.21;89.53
51849;BME280;38952;51.090;-1.832;2023-07-13T06:18:39;100386.06;;;15.66;88.49
51849;BME280;38952;51.090;-1.832;2023-07-13T06:21:10;100393.03;;;16.10;87.08
51849;BME280;38952;51.090;-1.832;2023-07-13T06:23:36;100400.31;;;16.34;86.23
51849;BME280;38952;51.090;-1.832;2023-07-13T06:26:03;100403.78;;;16.39;85.12
51849;BME280;38952;51.090;-1.832;2023-07-13T06:28:29;100413.31;;;16.47;84.93
51849;BME280;38952;51.090;-1.832;2023-07-13T06:30:55;100400.72;;;16.41;84.81
51849;BME280;38952;51.090;-1.832;2023-07-13T06:33:20;100416.16;;;16.42;85.47
51849;BME280;38952;51.090;-1.832;2023-07-13T06:35:46;100417.81;;;16.43;85.00
51849;BME280;38952;51.090;-1.832;2023-07-13T06:38:11;100411.16;;;16.44;84.32
51849;BME280;38952;51.090;-1.832;2023-07-13T06:40:37;100405.75;;;16.53;84.01
51849;BME280;38952;51.090;-1.832;2023-07-13T06:43:02;100413.00;;;16.63;83.95
51849;BME280;38952;51.090;-1.832;2023-07-13T06:45:27;100421.06;;;16.73;84.00
51849;BME280;38952;51.090;-1.832;2023-07-13T06:47:53;100421.16;;;16.82;83.45
51849;BME280;38952;51.090;-1.832;2023-07-13T06:50:18;100424.25;;;16.94;83.28
51849;BME280;38952;51.090;-1.832;2023-07-13T06:52:52;100425.25;;;17.12;83.06
51849;BME280;38952;51.090;-1.832;2023-07-13T06:55:18;100414.38;;;17.30;82.33
51849;BME280;38952;51.090;-1.832;2023-07-13T06:57:50;100435.75;;;17.60;80.60
51849;BME280;38952;51.090;-1.832;2023-07-13T07:00:18;100435.75;;;17.60;79.58
51849;BME280;38952;51.090;-1.832;2023-07-13T07:02:49;100428.41;;;17.56;79.12
51849;BME280;38952;51.090;-1.832;2023-07-13T07:05:19;100424.94;;;17.50;79.10
51849;BME280;38952;51.090;-1.832;2023-07-13T07:07:49;100424.44;;;17.48;78.31
51849;BME280;38952;51.090;-1.832;2023-07-13T07:10:15;100418.41;;;17.46;78.27
51849;BME280;38952;51.090;-1.832;2023-07-13T07:12:51;100434.97;;;17.46;78.34
51849;BME280;38952;51.090;-1.832;2023-07-13T07:15:20;100428.66;;;17.45;78.51
51849;BME280;38952;51.090;-1.832;2023-07-13T07:17:45;100452.25;;;17.52;79.05
51849;BME280;38952;51.090;-1.832;2023-07-13T07:20:38;100442.47;;;17.45;78.97
51849;BME280;38952;51.090;-1.832;2023-07-13T07:23:07;100424.69;;;17.60;78.92
51849;BME280;38952;51.090;-1.832;2023-07-13T07:25:45;100407.84;;;17.48;78.15
51849;BME280;38952;51.090;-1.832;2023-07-13T07:28:23;100416.41;;;17.38;77.48
51849;BME280;38952;51.090;-1.832;2023-07-13T07:30:52;100451.31;;;17.56;78.20
51849;BME280;38952;51.090;-1.832;2023-07-13T07:33:26;100419.50;;;17.22;78.67
51849;BME280;38952;51.090;-1.832;2023-07-13T07:35:52;100438.84;;;17.22;78.84
51849;BME280;38952;51.090;-1.832;2023-07-13T07:38:20;100468.81;;;17.29;78.96
51849;BME280;38952;51.090;-1.832;2023-07-13T07:40:45;100449.88;;;17.22;79.57
51849;BME280;38952;51.090;-1.832;2023-07-13T07:43:11;100465.69;;;17.44;79.53
51849;BME280;38952;51.090;-1.832;2023-07-13T07:45:48;100461.41;;;17.52;79.12
51849;BME280;38952;51.090;-1.832;2023-07-13T07:48:19;100447.06;;;17.50;78.95
51849;BME280;38952;51.090;-1.832;2023-07-13T07:50:57;100472.22;;;17.62;78.71
51849;BME280;38952;51.090;-1.832;2023-07-13T07:56:41;100440.03;;;17.67;77.93
51849;BME280;38952;51.090;-1.832;2023-07-13T07:59:15;100424.19;;;17.81;78.04
51849;BME280;38952;51.090;-1.832;2023-07-13T08:01:54;100450.84;;;18.22;76.75
51849;BME280;38952;51.090;-1.832;2023-07-13T08:04:33;100438.88;;;18.36;75.79
51849;BME280;38952;51.090;-1.832;2023-07-13T08:07:01;100443.84;;;18.56;75.52
51849;BME280;38952;51.090;-1.832;2023-07-13T08:09:28;100441.38;;;18.86;74.62
51849;BME280;38952;51.090;-1.832;2023-07-13T08:11:54;100437.16;;;18.97;73.47
51849;BME280;38952;51.090;-1.832;2023-07-13T08:14:20;100453.53;;;19.25;72.85
51849;BME280;38952;51.090;-1.832;2023-07-13T08:16:57;100452.06;;;19.28;71.51
51849;BME280;38952;51.090;-1.832;2023-07-13T08:19:25;100444.56;;;19.37;71.65
51849;BME280;38952;51.090;-1.832;2023-07-13T08:21:50;100448.97;;;19.64;69.95
51849;BME280;38952;51.090;-1.832;2023-07-13T08:24:18;100458.59;;;20.11;69.90
51849;BME280;38952;51.090;-1.832;2023-07-13T08:26:45;100453.50;;;20.60;66.61
51849;BME280;38952;51.090;-1.832;2023-07-13T08:29:11;100471.31;;;20.77;64.34
51849;BME280;38952;51.090;-1.832;2023-07-13T08:31:44;100442.31;;;20.48;64.49
51849;BME280;38952;51.090;-1.832;2023-07-13T08:34:10;100446.72;;;20.49;65.27
51849;BME280;38952;51.090;-1.832;2023-07-13T08:36:36;100439.03;;;20.46;63.97
51849;BME280;38952;51.090;-1.832;2023-07-13T08:39:01;100438.94;;;20.63;64.52
51849;BME280;38952;51.090;-1.832;2023-07-13T08:41:31;100464.31;;;21.00;63.43
51849;BME280;38952;51.090;-1.832;2023-07-13T08:50:46;100451.72;;;21.87;59.07
51849;BME280;38952;51.090;-1.832;2023-07-13T08:53:41;100454.00;;;22.06;56.80
51849;BME280;38952;51.090;-1.832;2023-07-13T08:56:18;100430.13;;;21.51;57.55
51849;BME280;38952;51.090;-1.832;2023-07-13T08:59:16;100470.38;;;21.74;57.58
51849;BME280;38952;51.090;-1.832;2023-07-13T09:04:47;100453.13;;;21.60;57.17
51849;BME280;38952;51.090;-1.832;2023-07-13T09:10:17;100458.94;;;21.25;58.47
51849;BME280;38952;51.090;-1.832;2023-07-13T09:15:44;100470.06;;;21.25;59.56
51849;BME280;38952;51.090;-1.832;2023-07-13T09:21:20;100462.16;;;22.11;55.77
51849;BME280;38952;51.090;-1.832;2023-07-13T09:23:59;100455.53;;;22.04;54.22
51849;BME280;38952;51.090;-1.832;2023-07-13T09:26:26;100474.16;;;22.03;54.20
51849;BME280;38952;51.090;-1.832;2023-07-13T09:28:57;100454.09;;;21.97;55.90
51849;BME280;38952;51.090;-1.832;2023-07-13T09:31:57;100454.28;;;22.26;54.48
51849;BME280;38952;51.090;-1.832;2023-07-13T09:34:25;100450.09;;;22.53;54.24
51849;BME280;38952;51.090;-1.832;2023-07-13T09:36:54;100451.38;;;22.93;52.56
51849;BME280;38952;51.090;-1.832;2023-07-13T09:39:29;100462.06;;;22.78;52.22
51849;BME280;38952;51.090;-1.832;2023-07-13T09:42:14;100449.06;;;22.24;52.58
51849;BME280;38952;51.090;-1.832;2023-07-13T09:47:18;100454.66;;;21.70;54.40
51849;BME280;38952;51.090;-1.832;2023-07-13T09:49:55;100455.56;;;21.61;54.64
51849;BME280;38952;51.090;-1.832;2023-07-13T09:52:21;100457.19;;;21.84;55.39
51849;BME280;38952;51.090;-1.832;2023-07-13T09:54:49;100459.84;;;22.59;53.13
51849;BME280;38952;51.090;-1.832;2023-07-13T10:00:22;100461.00;;;23.20;49.89
51849;BME280;38952;51.090;-1.832;2023-07-13T10:03:19;100467.94;;;23.39;51.93
51849;BME280;38952;51.090;-1.832;2023-07-13T10:05:49;100472.97;;;24.30;49.40
51849;BME280;38952;51.090;-1.832;2023-07-13T10:08:31;100470.13;;;24.14;48.50
51849;BME280;38952;51.090;-1.832;2023-07-13T10:11:29;100469.41;;;24.17;48.75
51849;BME280;38952;51.090;-1.832;2023-07-13T10:13:56;100474.75;;;24.22;47.48
51849;BME280;38952;51.090;-1.832;2023-07-13T10:16:25;100461.09;;;23.77;48.21
51849;BME280;38952;51.090;-1.832;2023-07-13T10:18:56;100452.34;;;23.78;48.55
51849;BME280;38952;51.090;-1.832;2023-07-13T10:21:27;100456.81;;;24.39;46.47
51849;BME280;38952;51.090;-1.832;2023-07-13T10:24:22;100471.53;;;23.92;48.17
51849;BME280;38952;51.090;-1.832;2023-07-13T10:26:56;100456.91;;;22.56;51.08
51849;BME280;38952;51.090;-1.832;2023-07-13T10:29:27;100478.38;;;21.55;53.76
51849;BME280;38952;51.090;-1.832;2023-07-13T10:31:54;100466.94;;;20.58;57.96
51849;BME280;38952;51.090;-1.832;2023-07-13T10:34:22;100469.19;;;20.73;59.26
51849;BME280;38952;51.090;-1.832;2023-07-13T10:37:01;100467.34;;;21.37;57.18
51849;BME280;38952;51.090;-1.832;2023-07-13T10:39:32;100458.91;;;22.80;55.70
51849;BME280;38952;51.090;-1.832;2023-07-13T10:42:04;100468.34;;;26.32;46.01
51849;BME280;38952;51.090;-1.832;2023-07-13T10:44:33;100469.56;;;26.34;43.90
51849;BME280;38952;51.090;-1.832;2023-07-13T10:47:10;100457.47;;;25.48;44.65
51849;BME280;38952;51.090;-1.832;2023-07-13T10:49:39;100469.66;;;24.88;45.70
51849;BME280;38952;51.090;-1.832;2023-07-13T11:03:33;100478.94;;;24.92;43.01
51849;BME280;38952;51.090;-1.832;2023-07-13T11:06:33;100468.34;;;24.66;44.51
51849;BME280;38952;51.090;-1.832;2023-07-13T11:09:18;100482.28;;;24.82;44.02
51849;BME280;38952;51.090;-1.832;2023-07-13T11:11:44;100457.13;;;24.82;44.13
51849;BME280;38952;51.090;-1.832;2023-07-13T11:16:52;100471.63;;;24.40;44.61
51849;BME280;38952;51.090;-1.832;2023-07-13T11:28:11;100476.06;;;22.45;47.12
51849;BME280;38952;51.090;-1.832;2023-07-13T11:31:02;100478.63;;;21.62;51.15
51849;BME280;38952;51.090;-1.832;2023-07-13T11:36:17;100471.81;;;20.61;56.41
51849;BME280;38952;51.090;-1.832;2023-07-13T11:51:53;100450.91;;;23.03;52.65
51849;BME280;38952;51.090;-1.832;2023-07-13T12:11:46;100474.81;;;28.34;40.24
51849;BME280;38952;51.090;-1.832;2023-07-13T12:17:52;100452.09;;;35.22;29.02
51849;BME280;38952;51.090;-1.832;2023-07-13T12:21:09;100467.69;;;37.98;25.62
51849;BME280;38952;51.090;-1.832;2023-07-13T12:24:20;100444.41;;;37.15;24.81
51849;BME280;38952;51.090;-1.832;2023-07-13T12:27:19;100421.09;;;32.79;28.89
51849;BME280;38952;51.090;-1.832;2023-07-13T12:29:56;100409.09;;;29.82;32.77
51849;BME280;38952;51.090;-1.832;2023-07-13T12:46:57;100452.00;;;21.31;55.62
51849;BME280;38952;51.090;-1.832;2023-07-13T12:49:30;100461.84;;;19.78;65.72
51849;BME280;38952;51.090;-1.832;2023-07-13T12:52:01;100442.22;;;18.55;72.89
51849;BME280;38952;51.090;-1.832;2023-07-13T12:54:40;100443.53;;;17.81;76.97
51849;BME280;38952;51.090;-1.832;2023-07-13T12:57:13;100444.56;;;17.62;80.19
51849;BME280;38952;51.090;-1.832;2023-07-13T12:59:44;100448.31;;;17.44;79.97
51849;BME280;38952;51.090;-1.832;2023-07-13T13:02:30;100463.47;;;17.47;80.84
51849;BME280;38952;51.090;-1.832;2023-07-13T13:05:00;100462.91;;;17.58;81.36
51849;BME280;38952;51.090;-1.832;2023-07-13T13:07:26;100464.97;;;17.75;81.81
51849;BME280;38952;51.090;-1.832;2023-07-13T13:09:52;100461.69;;;17.87;81.62
51849;BME280;38952;51.090;-1.832;2023-07-13T13:12:23;100448.34;;;17.89;83.54
51849;BME280;38952;51.090;-1.832;2023-07-13T13:15:00;100442.94;;;18.07;82.90
51849;BME280;38952;51.090;-1.832;2023-07-13T13:17:30;100449.50;;;18.51;81.80
51849;BME280;38952;51.090;-1.832;2023-07-13T13:19:59;100435.19;;;18.98;80.32
51849;BME280;38952;51.090;-1.832;2023-07-13T13:22:48;100438.88;;;19.86;78.27
51849;BME280;38952;51.090;-1.832;2023-07-13T13:25:13;100457.09;;;21.29;71.84
51849;BME280;38952;51.090;-1.832;2023-07-13T13:27:50;100462.75;;;22.29;65.65
51849;BME280;38952;51.090;-1.832;2023-07-13T13:30:17;100428.13;;;23.13;56.98
51849;BME280;38952;51.090;-1.832;2023-07-13T13:32:47;100445.34;;;23.84;51.02
51849;BME280;38952;51.090;-1.832;2023-07-13T13:35:17;100430.41;;;24.37;48.85
51849;BME280;38952;51.090;-1.832;2023-07-13T13:37:54;100425.19;;;25.54;48.32
51849;BME280;38952;51.090;-1.832;2023-07-13T13:40:24;100440.16;;;27.51;44.86
51849;BME280;38952;51.090;-1.832;2023-07-13T13:42:50;100449.66;;;29.67;38.94
51849;BME280;38952;51.090;-1.832;2023-07-13T13:45:18;100453.22;;;33.41;32.79
51849;BME280;38952;51.090;-1.832;2023-07-13T13:47:46;100440.50;;;35.13;27.79
51849;BME280;38952;51.090;-1.832;2023-07-13T13:50:16;100428.41;;;33.83;29.23
51849;BME280;38952;51.090;-1.832;2023-07-13T13:52:49;100438.78;;;33.93;30.13
51849;BME280;38952;51.090;-1.832;2023-07-13T13:55:25;100427.47;;;35.16;26.92
51849;BME280;38952;51.090;-1.832;2023-07-13T13:57:58;100442.69;;;35.05;25.72
51849;BME280;38952;51.090;-1.832;2023-07-13T14:00:23;100429.34;;;36.19;25.63
51849;BME280;38952;51.090;-1.832;2023-07-13T14:02:50;100417.97;;;39.52;22.26
51849;BME280;38952;51.090;-1.832;2023-07-13T14:05:32;100431.22;;;39.90;19.98
51849;BME280;38952;51.090;-1.832;2023-07-13T14:08:29;100441.78;;;37.50;22.01
51849;BME280;38952;51.090;-1.832;2023-07-13T14:10:59;100412.50;;;34.91;25.03
51849;BME280;38952;51.090;-1.832;2023-07-13T14:13:35;100413.50;;;32.65;27.18
51849;BME280;38952;51.090;-1.832;2023-07-13T14:16:10;100411.59;;;30.56;29.76
51849;BME280;38952;51.090;-1.832;2023-07-13T14:18:38;100398.56;;;28.91;32.57
51849;BME280;38952;51.090;-1.832;2023-07-13T14:21:11;100396.31;;;27.12;34.88
51849;BME280;38952;51.090;-1.832;2023-07-13T14:23:40;100422.09;;;25.79;38.90
51849;BME280;38952;51.090;-1.832;2023-07-13T14:26:11;100434.09;;;24.41;42.90
51849;BME280;38952;51.090;-1.832;2023-07-13T14:28:41;100441.16;;;22.72;48.19
51849;BME280;38952;51.090;-1.832;2023-07-13T14:31:11;100441.59;;;20.98;57.24
51849;BME280;38952;51.090;-1.832;2023-07-13T14:33:37;100437.03;;;19.64;62.04
51849;BME280;38952;51.090;-1.832;2023-07-13T14:36:16;100409.13;;;18.90;66.07
51849;BME280;38952;51.090;-1.832;2023-07-13T14:38:52;100454.78;;;18.61;69.17